createdAt,value
2018-02-06T00:00:51.156Z,88.8
2018-02-06T00:01:53.568Z,88.8
2018-02-06T00:02:55.999Z,88.7
2018-02-06T00:03:58.414Z,88.7
2018-02-06T00:05:00.834Z,88.7
2018-02-06T00:06:03.287Z,88.7
2018-02-06T00:07:05.677Z,88.7
2018-02-06T00:08:08.700Z,88.7
2018-02-06T00:09:11.116Z,88.7
2018-02-06T00:10:13.527Z,88.8
2018-02-06T00:11:15.953Z,88.7
2018-02-06T00:12:18.376Z,88.7
2018-02-06T00:13:20.788Z,88.7
2018-02-06T00:14:23.208Z,88.7
2018-02-06T00:15:25.632Z,88.6
2018-02-06T00:16:28.053Z,88.6
2018-02-06T00:17:30.482Z,88.6
2018-02-06T00:18:32.891Z,88.5
2018-02-06T00:19:35.307Z,88.6
2018-02-06T00:20:37.740Z,88.6
2018-02-06T00:21:40.163Z,88.6
2018-02-06T00:22:42.587Z,88.6
2018-02-06T00:23:45.010Z,88.6
2018-02-06T00:24:47.429Z,88.5
2018-02-06T00:25:49.849Z,88.5
2018-02-06T00:26:52.560Z,88.4
2018-02-06T00:27:54.973Z,88.3
2018-02-06T00:28:57.387Z,88.5
2018-02-06T00:29:59.811Z,88.4
2018-02-06T00:31:02.231Z,88.4
2018-02-06T00:32:04.939Z,88.4
2018-02-06T00:33:07.655Z,88.4
2018-02-06T00:34:10.371Z,88.3
2018-02-06T00:35:12.780Z,88.3
2018-02-06T00:36:15.480Z,88.2
2018-02-06T00:37:17.897Z,88.2
2018-02-06T00:38:20.322Z,88.2
2018-02-06T00:39:22.738Z,88.2
2018-02-06T00:40:25.152Z,88
2018-02-06T00:41:27.590Z,87.9
2018-02-06T00:42:29.992Z,87.7
2018-02-06T00:43:32.404Z,87.7
2018-02-06T00:44:34.829Z,87.7
2018-02-06T00:45:37.247Z,87.6
2018-02-06T00:46:39.961Z,87.6
2018-02-06T00:47:42.982Z,87.6
2018-02-06T00:48:45.686Z,87.6
2018-02-06T00:49:48.108Z,87.5
2018-02-06T00:50:50.832Z,87.6
2018-02-06T00:51:53.264Z,87.6
2018-02-06T00:52:55.683Z,87.5
2018-02-06T00:53:58.090Z,87.5
2018-02-06T00:55:00.511Z,87.5
2018-02-06T00:56:02.919Z,87.5
2018-02-06T00:57:05.617Z,87.5
2018-02-06T00:58:08.039Z,87.5
2018-02-06T00:59:10.456Z,87.4
2018-02-06T01:00:12.879Z,87.5
2018-02-06T01:01:15.311Z,87.6
2018-02-06T01:02:17.734Z,87.4
2018-02-06T01:03:20.430Z,87.4
2018-02-06T01:04:22.850Z,87.3
2018-02-06T01:05:25.265Z,87.3
2018-02-06T01:06:27.692Z,87.3
2018-02-06T01:07:30.117Z,87.3
2018-02-06T01:08:32.528Z,87.3
2018-02-06T01:09:34.948Z,87.2
2018-02-06T01:10:37.375Z,87.2
2018-02-06T01:11:39.791Z,87.1
2018-02-06T01:12:42.209Z,87.2
2018-02-06T01:13:44.628Z,87.2
2018-02-06T01:14:47.054Z,87.1
2018-02-06T01:15:49.488Z,87.2
2018-02-06T01:16:51.907Z,87.1
2018-02-06T01:17:54.317Z,87.2
2018-02-06T01:18:56.748Z,87.1
2018-02-06T01:19:59.161Z,87
2018-02-06T01:21:01.585Z,87
2018-02-06T01:22:03.999Z,87
2018-02-06T01:23:06.424Z,87.1
2018-02-06T01:24:08.846Z,87
2018-02-06T01:25:11.255Z,87
2018-02-06T01:26:14.251Z,87
2018-02-06T01:27:16.664Z,87
2018-02-06T01:28:19.088Z,87
2018-02-06T01:29:21.512Z,86.8
2018-02-06T01:30:23.926Z,86.9
2018-02-06T01:31:26.354Z,86.8
2018-02-06T01:32:28.784Z,86.7
2018-02-06T01:33:31.199Z,86.7
2018-02-06T01:34:33.621Z,86.7
2018-02-06T01:35:36.326Z,86.7
2018-02-06T01:36:39.025Z,86.6
2018-02-06T01:37:41.442Z,86.7
2018-02-06T01:38:43.854Z,86.8
2018-02-06T01:39:46.263Z,86.8
2018-02-06T01:40:48.688Z,86.9
2018-02-06T01:41:51.095Z,87
2018-02-06T01:42:53.524Z,87
2018-02-06T01:43:56.225Z,86.9
2018-02-06T01:44:58.652Z,87
2018-02-06T01:46:01.075Z,86.9
2018-02-06T01:47:03.496Z,86.9
2018-02-06T01:48:05.915Z,86.9
2018-02-06T01:49:08.333Z,87
2018-02-06T01:50:10.748Z,87
2018-02-06T01:51:13.179Z,87
2018-02-06T01:52:16.177Z,86.7
2018-02-06T01:53:18.599Z,86.8
2018-02-06T01:54:21.025Z,86.7
2018-02-06T01:55:23.439Z,86.6
2018-02-06T01:56:25.863Z,86.6
2018-02-06T01:57:28.298Z,86.6
2018-02-06T01:58:31.000Z,86.7
2018-02-06T01:59:33.700Z,86.8
2018-02-06T02:00:36.123Z,86.8
2018-02-06T02:01:38.540Z,86.8
2018-02-06T02:02:40.964Z,86.9
2018-02-06T02:03:43.668Z,86.8
2018-02-06T02:04:46.103Z,86.8
2018-02-06T02:05:48.801Z,86.7
2018-02-06T02:06:51.214Z,86.7
2018-02-06T02:07:53.622Z,86.7
2018-02-06T02:08:56.040Z,86.7
2018-02-06T02:09:58.751Z,86.6
2018-02-06T02:11:01.170Z,86.6
2018-02-06T02:12:03.881Z,86.6
2018-02-06T02:13:06.296Z,86.5
2018-02-06T02:14:08.711Z,86.5
2018-02-06T02:15:11.149Z,86.4
2018-02-06T02:16:13.570Z,86.4
2018-02-06T02:17:15.980Z,86.4
2018-02-06T02:18:18.401Z,86.4
2018-02-06T02:19:20.819Z,86.4
2018-02-06T02:20:23.222Z,86.4
2018-02-06T02:21:25.636Z,86.3
2018-02-06T02:22:28.070Z,86.3
2018-02-06T02:23:30.778Z,86.3
2018-02-06T02:24:33.200Z,86.3
2018-02-06T02:25:36.202Z,86.3
2018-02-06T02:26:38.624Z,86.3
2018-02-06T02:27:41.048Z,86.2
2018-02-06T02:28:43.471Z,86.3
2018-02-06T02:29:45.877Z,86.3
2018-02-06T02:30:48.301Z,86.4
2018-02-06T02:31:50.710Z,86.4
2018-02-06T02:32:53.128Z,86.4
2018-02-06T02:33:55.551Z,86.3
2018-02-06T02:34:57.969Z,86.3
2018-02-06T02:36:00.382Z,86.4
2018-02-06T02:37:02.797Z,86.3
2018-02-06T02:38:05.209Z,86.4
2018-02-06T02:39:07.625Z,86.3
2018-02-06T02:40:10.053Z,86.3
2018-02-06T02:41:12.460Z,86.3
2018-02-06T04:38:48.861Z,86
2018-02-06T04:39:51.275Z,85.9
2018-02-06T04:40:53.689Z,86
2018-02-06T04:41:56.110Z,86.2
2018-02-06T04:42:58.526Z,86.3
2018-02-06T04:44:00.954Z,86.3
2018-02-06T04:45:03.367Z,86.2
2018-02-06T04:46:05.783Z,86.4
2018-02-06T04:47:08.205Z,86.4
2018-02-06T04:48:10.616Z,86.4
2018-02-06T04:49:13.033Z,86.4
2018-02-06T04:50:15.445Z,86.4
2018-02-06T04:51:17.851Z,86.3
2018-02-06T04:52:20.269Z,86.3
2018-02-06T04:53:22.690Z,86.2
2018-02-06T04:54:25.100Z,86.2
2018-02-06T04:55:27.520Z,86.3
2018-02-06T04:56:29.929Z,86.3
2018-02-06T04:57:32.344Z,86.3
2018-02-06T04:58:34.764Z,86.4
2018-02-06T04:59:37.180Z,86.4
2018-02-06T05:00:39.592Z,86.4
2018-02-06T05:01:42.023Z,86.5
2018-02-06T05:02:44.440Z,86.7
2018-02-06T05:03:46.845Z,86.7
2018-02-06T05:04:49.561Z,86.7
2018-02-06T05:05:51.974Z,86.7
2018-02-06T05:06:54.668Z,86.6
2018-02-06T05:07:57.097Z,86.6
2018-02-06T05:08:59.786Z,86.4
2018-02-06T05:10:02.208Z,86.5
2018-02-06T05:11:04.939Z,86.5
2018-02-06T05:12:07.357Z,86.5
2018-02-06T05:13:09.775Z,86.3
2018-02-06T05:14:12.483Z,86.1
2018-02-06T05:15:14.898Z,86.1
2018-02-06T05:16:17.598Z,86
2018-02-06T05:17:20.009Z,86
2018-02-06T05:18:22.416Z,86
2018-02-06T05:19:24.830Z,85.9
2018-02-06T05:20:27.257Z,85.8
2018-02-06T05:21:29.672Z,85.8
2018-02-06T05:22:32.095Z,85.8
2018-02-06T05:23:34.511Z,85.7
2018-02-06T05:24:36.927Z,85.8
2018-02-06T05:25:39.355Z,85.7
2018-02-06T05:26:42.109Z,85.6
2018-02-06T05:27:44.516Z,85.7
2018-02-06T05:28:46.932Z,85.6
2018-02-06T05:29:49.350Z,85.6
2018-02-06T05:30:51.768Z,85.6
2018-02-06T05:31:54.186Z,85.5
2018-02-06T05:32:56.591Z,85.5
2018-02-06T05:33:59.282Z,85.6
2018-02-06T05:35:01.991Z,85.5
2018-02-06T05:36:04.403Z,85.4
2018-02-06T05:37:06.814Z,85.4
2018-02-06T05:38:09.233Z,85.5
2018-02-06T05:39:11.647Z,85.5
2018-02-06T05:40:14.070Z,85.4
2018-02-06T05:41:16.497Z,85.4
2018-02-06T05:42:19.178Z,85.6
2018-02-06T05:43:21.885Z,85.7
2018-02-06T05:44:24.591Z,85.8
2018-02-06T05:45:27.015Z,85.8
2018-02-06T05:46:29.734Z,85.8
2018-02-06T05:47:32.150Z,85.9
2018-02-06T05:48:34.566Z,86
2018-02-06T05:49:37.262Z,86
2018-02-06T05:50:39.957Z,86.5
2018-02-06T05:51:42.389Z,86.6
2018-02-06T05:52:44.789Z,86.6
2018-02-06T05:53:47.211Z,86.6
2018-02-06T05:54:49.622Z,86.6
2018-02-06T05:55:52.319Z,86.6
2018-02-06T05:56:54.742Z,86.5
2018-02-06T05:57:57.444Z,86.4
2018-02-06T05:58:59.852Z,86.4
2018-02-06T06:00:02.277Z,86.4
2018-02-06T06:01:04.692Z,86.3
2018-02-06T06:02:07.398Z,86.1
2018-02-06T06:03:09.817Z,86
2018-02-06T06:04:12.229Z,85.8
2018-02-06T06:05:14.641Z,85.8
2018-02-06T06:06:17.095Z,85.7
2018-02-06T06:07:19.474Z,85.7
2018-02-06T06:08:21.903Z,85.8
2018-02-06T06:09:24.323Z,85.8
2018-02-06T06:10:27.077Z,85.8
2018-02-06T06:11:29.492Z,85.8
2018-02-06T06:12:31.910Z,85.8
2018-02-06T06:13:34.316Z,85.8
2018-02-06T06:14:36.733Z,85.8
2018-02-06T06:15:39.159Z,85.8
2018-02-06T06:16:41.581Z,85.8
2018-02-06T06:17:43.977Z,85.8
2018-02-06T06:18:46.401Z,85.8
2018-02-06T06:19:48.822Z,85.8
2018-02-06T06:20:51.238Z,85.8
2018-02-06T06:21:53.652Z,85.8
2018-02-06T06:22:56.099Z,85.8
2018-02-06T06:23:58.474Z,85.7
2018-02-06T06:25:01.182Z,85.7
2018-02-06T06:26:03.592Z,85.7
2018-02-06T06:27:06.004Z,85.6
2018-02-06T06:28:08.432Z,85.6
2018-02-06T06:29:10.851Z,85.7
2018-02-06T06:30:13.562Z,85.8
2018-02-06T06:31:15.972Z,86.1
2018-02-06T06:32:18.380Z,86.2
2018-02-06T06:33:20.806Z,86.4
2018-02-06T06:34:23.214Z,86.4
2018-02-06T06:35:25.630Z,86.4
2018-02-06T06:36:28.043Z,86.4
2018-02-06T06:37:30.453Z,86.5
2018-02-06T06:38:32.869Z,86.6
2018-02-06T06:39:35.300Z,86.6
2018-02-06T06:40:37.702Z,86.5
2018-02-06T06:41:40.115Z,86.5
2018-02-06T06:42:42.533Z,86.5
2018-02-06T06:43:44.946Z,86.6
2018-02-06T06:44:47.369Z,86.7
2018-02-06T06:45:49.793Z,86.7
2018-02-06T06:46:52.209Z,86.8
2018-02-06T06:47:54.629Z,86.6
2018-02-06T06:48:57.044Z,86.4
2018-02-06T06:49:59.465Z,86.5
2018-02-06T06:51:02.192Z,86.5
2018-02-06T06:52:04.608Z,86.6
2018-02-06T06:53:07.029Z,86.5
2018-02-06T06:54:09.729Z,86.4
2018-02-06T06:55:12.152Z,86.5
2018-02-06T06:56:14.567Z,86.5
2018-02-06T06:57:16.984Z,86.5
2018-02-06T06:58:19.402Z,86.5
2018-02-06T06:59:21.812Z,86.5
2018-02-06T07:00:24.226Z,86.5
2018-02-06T07:01:26.656Z,86.5
2018-02-06T07:02:29.070Z,86.6
2018-02-06T07:03:31.479Z,86.6
2018-02-06T07:04:33.905Z,86.6
2018-02-06T07:05:36.321Z,86.5
2018-02-06T07:06:39.028Z,86.5
2018-02-06T07:07:41.451Z,86.5
2018-02-06T07:08:43.863Z,86.5
2018-02-06T07:09:46.288Z,86.8
2018-02-06T07:10:48.744Z,86.8
2018-02-06T07:11:51.125Z,86.7
2018-02-06T07:12:53.542Z,86.7
2018-02-06T07:13:55.970Z,86.7
2018-02-06T07:14:58.385Z,86.7
2018-02-06T07:16:00.841Z,86.6
2018-02-06T07:17:03.229Z,86.6
2018-02-06T07:18:05.637Z,86.5
2018-02-06T07:19:08.044Z,86.5
2018-02-06T07:20:10.752Z,86.6
2018-02-06T07:21:13.446Z,86.6
2018-02-06T07:22:15.871Z,86.6
2018-02-06T07:23:18.286Z,86.6
2018-02-06T07:24:20.990Z,86.6
2018-02-06T07:25:23.401Z,86.7
2018-02-06T07:26:26.113Z,86.8
2018-02-06T07:27:28.535Z,86.8
2018-02-06T07:28:31.246Z,87
2018-02-06T07:29:33.659Z,87.1
2018-02-06T07:30:36.372Z,87.1
2018-02-06T07:31:38.799Z,87.2
2018-02-06T07:32:41.212Z,87.1
2018-02-06T07:33:43.641Z,87.2
2018-02-06T07:34:46.057Z,87.2
2018-02-06T07:35:48.474Z,87.3
2018-02-06T07:36:50.886Z,87.4
2018-02-06T07:37:53.290Z,87.4
2018-02-06T07:38:56.019Z,87.5
2018-02-06T07:39:58.431Z,87.4
2018-02-06T07:41:00.848Z,87.4
2018-02-06T07:42:03.277Z,87.4
2018-02-06T07:43:05.686Z,87.4
2018-02-06T07:44:08.103Z,87.6
2018-02-06T07:45:10.520Z,87.6
2018-02-06T07:46:12.926Z,87.6
2018-02-06T07:47:15.340Z,87.6
2018-02-06T07:48:18.055Z,87.6
2018-02-06T07:49:20.545Z,87.6
2018-02-06T07:50:23.002Z,87.5
2018-02-06T07:51:25.504Z,87.6
2018-02-06T07:52:27.977Z,87.5
2018-02-06T07:53:30.405Z,87.6
2018-02-06T07:54:32.820Z,87.7
2018-02-06T07:55:35.233Z,87.7
2018-02-06T07:56:37.644Z,87.7
2018-02-06T07:57:40.077Z,87.8
2018-02-06T07:58:42.494Z,88
2018-02-06T07:59:44.911Z,88.1
2018-02-06T08:00:47.324Z,88.1
2018-02-06T08:01:49.745Z,88.1
2018-02-06T08:02:52.171Z,88.1
2018-02-06T08:03:54.586Z,88.2
2018-02-06T08:04:56.992Z,88.2
2018-02-06T08:05:59.418Z,88.1
2018-02-06T08:07:02.128Z,88.1
2018-02-06T08:08:04.546Z,88.3
2018-02-06T08:09:07.264Z,88.6
2018-02-06T08:10:09.674Z,88.9
2018-02-06T08:11:12.095Z,89.2
2018-02-06T08:12:14.522Z,89.3
2018-02-06T08:13:16.938Z,89.6
2018-02-06T08:14:19.345Z,89.8
2018-02-06T08:15:21.766Z,90
2018-02-06T08:16:24.184Z,90.1
2018-02-06T08:17:26.601Z,90.2
2018-02-06T08:18:29.023Z,90.2
2018-02-06T08:19:31.442Z,90.4
2018-02-06T08:20:33.861Z,90.4
2018-02-06T08:21:36.300Z,90.4
2018-02-06T08:22:38.721Z,90.5
2018-02-06T08:23:41.131Z,90.5
2018-02-06T08:24:43.549Z,90.5
2018-02-06T08:25:45.966Z,90.6
2018-02-06T08:26:48.382Z,90.7
2018-02-06T08:27:50.807Z,90.8
2018-02-06T08:28:53.211Z,90.8
2018-02-06T08:29:55.630Z,90.7
2018-02-06T08:30:58.060Z,90.9
2018-02-06T08:32:00.478Z,90.9
2018-02-06T08:33:02.914Z,91
2018-02-06T08:34:05.335Z,90.9
2018-02-06T08:35:07.749Z,91
2018-02-06T08:36:10.173Z,91
2018-02-06T08:37:12.600Z,91
2018-02-06T08:38:15.013Z,91.1
2018-02-06T08:39:17.432Z,91.1
2018-02-06T08:40:19.851Z,91
2018-02-06T08:41:22.264Z,91
2018-02-06T08:42:24.677Z,90.9
2018-02-06T08:43:27.105Z,90.9
2018-02-06T08:44:29.525Z,90.8
2018-02-06T08:45:31.937Z,90.5
2018-02-06T08:46:34.368Z,90.5
2018-02-06T08:47:36.783Z,90.5
2018-02-06T08:48:39.210Z,90.6
2018-02-06T08:49:41.625Z,90.7
2018-02-06T08:50:44.042Z,90.7
2018-02-06T08:51:46.460Z,90.7
2018-02-06T08:52:48.893Z,90.7
2018-02-06T08:53:51.590Z,90.7
2018-02-06T08:54:54.006Z,90.8
2018-02-06T08:55:56.421Z,90.8
2018-02-06T08:56:58.852Z,90.8
2018-02-06T08:58:01.283Z,90.8
2018-02-06T08:59:03.702Z,90.8
2018-02-06T09:00:06.399Z,90.8
2018-02-06T09:01:09.116Z,90.9
2018-02-06T09:02:11.537Z,90.9
2018-02-06T09:03:14.243Z,90.9
2018-02-06T09:04:16.657Z,90.8
2018-02-06T09:05:19.087Z,90.9
2018-02-06T09:06:21.509Z,90.9
2018-02-06T09:07:23.937Z,90.9
2018-02-06T09:08:26.356Z,90.9
2018-02-06T09:09:28.777Z,91
2018-02-06T09:10:31.192Z,91.1
2018-02-06T09:11:33.624Z,91.2
2018-02-06T09:12:36.039Z,91.2
2018-02-06T09:13:38.456Z,91.2
2018-02-06T09:14:41.164Z,91.3
2018-02-06T09:15:43.579Z,91.4
2018-02-06T09:16:45.995Z,91.4
2018-02-06T09:17:48.426Z,91.5
2018-02-06T09:18:50.852Z,91.4
2018-02-06T09:19:53.266Z,91.5
2018-02-06T09:20:55.695Z,91.9
2018-02-06T09:21:58.111Z,92.3
2018-02-06T09:23:00.539Z,92.4
2018-02-06T09:24:02.965Z,92.6
2018-02-06T09:25:05.666Z,92.6
2018-02-06T09:26:08.091Z,92.8
2018-02-06T09:27:10.516Z,93.1
2018-02-06T09:28:12.922Z,93.3
2018-02-06T09:29:15.347Z,93.5
2018-02-06T09:30:17.780Z,94
2018-02-06T09:31:20.205Z,94.1
2018-02-06T09:32:22.916Z,94.1
2018-02-06T09:33:25.335Z,94.4
2018-02-06T09:34:27.758Z,94.3
2018-02-06T09:35:30.191Z,94.4
2018-02-06T09:36:32.614Z,94.4
2018-02-06T09:37:35.328Z,94.3
2018-02-06T09:38:37.754Z,94
2018-02-06T09:39:40.182Z,93.7
2018-02-06T09:40:42.606Z,93.3
2018-02-06T09:41:45.023Z,93
2018-02-06T09:42:47.751Z,92.9
2018-02-06T09:43:50.180Z,92.9
2018-02-06T09:44:52.595Z,93
2018-02-06T09:45:55.024Z,93
2018-02-06T09:46:57.455Z,93.2
2018-02-06T09:47:59.874Z,93.1
2018-02-06T09:49:02.313Z,93.1
2018-02-06T09:50:04.724Z,93.1
2018-02-06T09:51:07.444Z,93.2
2018-02-06T09:52:09.883Z,93.2
2018-02-06T09:53:12.354Z,93.4
2018-02-06T09:54:14.733Z,93.2
2018-02-06T09:55:17.163Z,93.4
2018-02-06T09:56:19.577Z,93.5
2018-02-06T09:57:22.292Z,93.4
2018-02-06T09:58:24.720Z,93.4
2018-02-06T09:59:27.137Z,93.6
2018-02-06T10:00:29.564Z,93.7
2018-02-06T10:01:32.283Z,93.7
2018-02-06T10:02:34.712Z,93.7
2018-02-06T10:03:37.132Z,93.7
2018-02-06T10:04:39.560Z,93.3
2018-02-06T10:05:41.988Z,93.4
2018-02-06T10:06:44.417Z,93.5
2018-02-06T10:07:46.836Z,93.5
2018-02-06T10:08:49.261Z,93.8
2018-02-06T10:09:51.690Z,94.2
2018-02-06T10:10:54.132Z,94.3
2018-02-06T10:11:56.558Z,94.4
2018-02-06T10:12:58.987Z,94.7
2018-02-06T10:14:01.415Z,94.9
2018-02-06T10:15:03.850Z,94.9
2018-02-06T10:16:06.268Z,94.4
2018-02-06T10:17:08.697Z,94.3
2018-02-06T10:18:11.137Z,94
2018-02-06T10:19:13.557Z,94
2018-02-06T10:20:15.970Z,94.2
2018-02-06T10:21:18.402Z,95.2
2018-02-06T10:22:20.819Z,95.7
2018-02-06T10:23:23.245Z,95.9
2018-02-06T10:24:25.671Z,95.7
2018-02-06T10:25:28.071Z,95.4
2018-02-06T10:26:30.506Z,94.8
2018-02-06T10:27:33.191Z,94
2018-02-06T10:28:35.617Z,93.2
2018-02-06T10:29:38.037Z,92.7
2018-02-06T10:30:40.459Z,92.5
2018-02-06T10:31:42.883Z,92.7
2018-02-06T10:32:45.309Z,92.5
2018-02-06T10:33:47.722Z,91.9
2018-02-06T10:34:50.149Z,91.8
2018-02-06T10:35:52.562Z,92.4
2018-02-06T10:36:54.978Z,92.9
2018-02-06T10:37:57.410Z,93
2018-02-06T10:39:00.121Z,92.8
2018-02-06T10:40:02.820Z,92.4
2018-02-06T10:41:05.249Z,92.5
2018-02-06T10:42:07.960Z,92.8
2018-02-06T10:43:10.385Z,92.8
2018-02-06T10:44:12.810Z,93.2
2018-02-06T10:45:15.229Z,93.1
2018-02-06T10:46:17.970Z,93.1
2018-02-06T10:47:20.665Z,93
2018-02-06T10:48:23.085Z,93.1
2018-02-06T10:49:25.512Z,93
2018-02-06T10:50:27.923Z,93.3
2018-02-06T10:51:30.641Z,94.3
2018-02-06T10:52:33.064Z,94.7
2018-02-06T10:53:35.491Z,95.3
2018-02-06T10:54:37.912Z,95.1
2018-02-06T10:55:40.331Z,94.3
2018-02-06T10:56:42.753Z,94.2
2018-02-06T10:57:45.181Z,93.9
2018-02-06T10:58:47.598Z,93.4
2018-02-06T10:59:50.017Z,93.3
2018-02-06T11:00:52.454Z,93.5
2018-02-06T11:01:54.876Z,94.1
2018-02-06T11:02:57.293Z,94.2
2018-02-06T11:03:59.713Z,94.4
2018-02-06T11:05:02.131Z,95
2018-02-06T11:06:04.844Z,95.5
2018-02-06T11:07:07.280Z,95.6
2018-02-06T11:08:09.690Z,95.4
2018-02-06T11:09:12.109Z,94.9
2018-02-06T11:10:14.544Z,94.4
2018-02-06T11:11:16.966Z,94.3
2018-02-06T11:12:19.390Z,93.4
2018-02-06T11:13:21.801Z,93.3
2018-02-06T11:14:24.225Z,93.7
2018-02-06T11:15:26.936Z,93.8
2018-02-06T11:16:29.362Z,93.8
2018-02-06T11:17:31.778Z,93.8
2018-02-06T11:18:34.490Z,93.6
2018-02-06T11:19:36.909Z,94
2018-02-06T11:20:39.339Z,93.8
2018-02-06T11:21:41.763Z,93.5
2018-02-06T11:22:44.182Z,93.4
2018-02-06T11:23:46.598Z,93.7
2018-02-06T11:24:49.032Z,92.9
2018-02-06T11:25:51.446Z,92.9
2018-02-06T11:26:54.164Z,93.1
2018-02-06T11:27:56.584Z,92.8
2018-02-06T11:28:59.002Z,93.7
2018-02-06T11:30:01.723Z,94.5
2018-02-06T11:31:04.729Z,94.8
2018-02-06T11:32:07.432Z,95.1
2018-02-06T11:33:09.871Z,94.2
2018-02-06T11:34:12.279Z,93.3
2018-02-06T11:35:14.702Z,91.1
2018-02-06T11:36:17.134Z,91.8
2018-02-06T11:37:19.558Z,92
2018-02-06T11:38:21.982Z,91.8
2018-02-06T11:39:24.399Z,92.1
2018-02-06T11:40:27.116Z,91.3
2018-02-06T11:41:29.532Z,90.6
2018-02-06T11:42:31.956Z,90
2018-02-06T11:43:34.370Z,90.2
2018-02-06T11:44:36.834Z,89.7
2018-02-06T11:45:39.217Z,85.5
2018-02-06T11:46:41.640Z,83
2018-02-06T11:47:44.066Z,82.7
2018-02-06T11:48:46.508Z,85.2
2018-02-06T11:49:48.920Z,87.9
2018-02-06T11:50:51.347Z,90.7
2018-02-06T11:51:54.070Z,92.1
2018-02-06T11:52:56.494Z,92.9
2018-02-06T11:53:58.913Z,93.5
2018-02-06T11:55:01.334Z,94.1
2018-02-06T11:56:03.752Z,94.7
2018-02-06T11:57:06.170Z,95.1
2018-02-06T11:58:08.875Z,95.2
2018-02-06T11:59:11.304Z,95.3
2018-02-06T12:00:14.000Z,94.7
2018-02-06T12:01:16.430Z,92.4
2018-02-06T12:02:19.138Z,91.8
2018-02-06T12:03:21.560Z,88.8
2018-02-06T12:04:23.985Z,90
2018-02-06T12:05:26.398Z,90
2018-02-06T12:06:28.816Z,90.2
2018-02-06T12:07:31.262Z,90.4
2018-02-06T12:08:33.668Z,91.5
2018-02-06T12:09:36.091Z,92.8
2018-02-06T12:10:38.513Z,92.9
2018-02-06T12:11:40.940Z,92.8
2018-02-06T12:12:43.354Z,91.8
2018-02-06T12:13:46.051Z,91
2018-02-06T12:14:48.502Z,91.4
2018-02-06T12:15:50.927Z,92.2
2018-02-06T12:16:53.636Z,92.3
2018-02-06T12:17:56.336Z,92.1
2018-02-06T12:18:58.751Z,92
2018-02-06T12:20:01.180Z,91.5
2018-02-06T12:21:03.598Z,91.6
2018-02-06T12:22:06.009Z,92.1
2018-02-06T12:23:08.429Z,92.2
2018-02-06T12:24:10.851Z,91.8
2018-02-06T12:25:13.268Z,92.3
2018-02-06T12:26:15.690Z,92.7
2018-02-06T12:27:18.109Z,93.2
2018-02-06T12:28:20.545Z,93.6
2018-02-06T12:29:22.973Z,93.4
2018-02-06T12:30:25.399Z,92.7
2018-02-06T12:31:27.814Z,92.9
2018-02-06T12:32:30.245Z,92.4
2018-02-06T12:33:32.674Z,91.2
2018-02-06T12:34:35.090Z,91.4
2018-02-06T12:35:37.505Z,91.7
2018-02-06T12:36:40.212Z,91.9
2018-02-06T12:37:42.634Z,92.3
2018-02-06T12:38:45.348Z,92.6
2018-02-06T12:39:47.771Z,92.3
2018-02-06T12:40:50.178Z,92.3
2018-02-06T12:41:52.608Z,92.5
2018-02-06T12:42:55.030Z,92.7
2018-02-06T12:43:57.460Z,92.8
2018-02-06T12:44:59.881Z,93.1
2018-02-06T12:46:02.323Z,93.3
2018-02-06T12:47:04.728Z,93
2018-02-06T12:48:07.162Z,92.7
2018-02-06T12:49:09.583Z,92.5
2018-02-06T12:50:11.997Z,92.7
2018-02-06T12:51:14.425Z,92.9
2018-02-06T12:52:16.848Z,93.1
2018-02-06T12:53:19.262Z,93
2018-02-06T12:54:21.694Z,92.3
2018-02-06T12:55:24.106Z,92
2018-02-06T12:56:26.536Z,91.5
2018-02-06T12:57:28.955Z,91.8
2018-02-06T12:58:31.946Z,92.3
2018-02-06T12:59:34.940Z,92.7
2018-02-06T13:00:37.360Z,92.8
2018-02-06T13:01:39.775Z,92.8
2018-02-06T13:02:42.202Z,93
2018-02-06T13:03:44.616Z,92.8
2018-02-06T13:04:47.328Z,92.9
2018-02-06T13:05:50.031Z,92.7
2018-02-06T13:06:52.461Z,92.2
2018-02-06T13:07:55.469Z,91.5
2018-02-06T13:08:57.979Z,91.1
2018-02-06T13:10:00.331Z,90.7
2018-02-06T13:11:03.036Z,91.1
2018-02-06T13:12:05.447Z,91.1
2018-02-06T13:13:07.880Z,90.8
2018-02-06T13:14:10.300Z,90.4
2018-02-06T13:15:12.724Z,90.5
2018-02-06T13:16:15.148Z,90.7
2018-02-06T13:17:17.565Z,91
2018-02-06T13:18:20.269Z,90.9
2018-02-06T13:19:22.703Z,90.9
2018-02-06T13:20:25.116Z,90.6
2018-02-06T13:21:27.529Z,90.4
2018-02-06T13:22:29.961Z,90.8
2018-02-06T13:23:32.940Z,90.9
2018-02-06T13:24:35.364Z,91.2
2018-02-06T13:25:37.785Z,91.2
2018-02-06T13:26:40.202Z,91
2018-02-06T13:27:42.621Z,90.8
2018-02-06T13:28:45.046Z,90.9
2018-02-06T13:29:47.482Z,91.3
2018-02-06T13:30:49.887Z,91
2018-02-06T13:31:52.321Z,90.8
2018-02-06T13:32:55.025Z,90.7
2018-02-06T13:33:57.733Z,90.4
2018-02-06T13:35:00.147Z,90.2
2018-02-06T13:36:02.573Z,90.1
2018-02-06T13:37:04.984Z,89.7
2018-02-06T13:38:07.983Z,90
2018-02-06T13:39:10.677Z,90.4
2018-02-06T13:40:13.095Z,90.2
2018-02-06T13:41:15.520Z,89.9
2018-02-06T13:42:17.943Z,90.1
2018-02-06T13:43:20.359Z,90.3
2018-02-06T13:44:22.792Z,90.3
2018-02-06T13:45:25.500Z,90.7
2018-02-06T13:46:28.200Z,90.9
2018-02-06T13:47:30.630Z,91.1
2018-02-06T13:48:33.339Z,91.1
2018-02-06T13:49:35.760Z,90.7
2018-02-06T13:50:38.191Z,90.6
2018-02-06T13:51:40.606Z,90.6
2018-02-06T13:52:43.030Z,90.8
2018-02-06T13:53:45.453Z,90.9
2018-02-06T13:54:47.858Z,90.7
2018-02-06T13:55:50.280Z,89.8
2018-02-06T13:56:52.714Z,88.8
2018-02-06T13:57:55.141Z,88.8
2018-02-06T13:58:57.567Z,89
2018-02-06T13:59:59.990Z,88.8
2018-02-06T14:01:02.420Z,89.7
2018-02-06T14:02:04.863Z,88.8
2018-02-06T14:03:07.577Z,87.5
2018-02-06T14:04:09.995Z,86.2
2018-02-06T14:05:12.440Z,84.8
2018-02-06T14:06:15.450Z,84.7
2018-02-06T14:07:17.882Z,84.6
2018-02-06T14:08:20.315Z,84
2018-02-06T14:09:22.745Z,84.4
2018-02-06T14:10:25.185Z,84.7
2018-02-06T14:11:27.604Z,84.2
2018-02-06T14:12:30.032Z,83.5
2018-02-06T14:13:32.462Z,84.1
2018-02-06T14:14:34.880Z,84.1
2018-02-06T14:15:37.343Z,83.7
2018-02-06T14:16:39.738Z,83.5
2018-02-06T14:17:42.159Z,82.9
2018-02-06T14:18:44.604Z,82.7
2018-02-06T14:19:47.041Z,83.1
2018-02-06T14:20:49.465Z,84.3
2018-02-06T14:21:51.894Z,84.5
2018-02-06T14:22:54.318Z,85
2018-02-06T14:23:56.745Z,85.8
2018-02-06T14:24:59.208Z,86.3
2018-02-06T14:26:01.592Z,86.4
2018-02-06T14:27:04.018Z,87.3
2018-02-06T14:28:06.462Z,87.3
2018-02-06T14:29:08.887Z,87.5
2018-02-06T14:30:11.300Z,88
2018-02-06T14:31:13.726Z,88.1
2018-02-06T14:32:16.147Z,88.2
2018-02-06T14:33:18.582Z,88.4
2018-02-06T14:34:20.998Z,88.2
2018-02-06T14:35:23.411Z,88
2018-02-06T14:36:25.840Z,87.7
2018-02-06T14:37:28.278Z,87.6
2018-02-06T14:38:30.703Z,87.5
2018-02-06T14:39:33.131Z,87.4
2018-02-06T14:40:35.554Z,87.8
2018-02-06T14:41:37.984Z,88.2
2018-02-06T14:42:40.691Z,88.4
2018-02-06T14:43:43.119Z,88.6
2018-02-06T14:44:45.844Z,88.8
2018-02-06T14:45:48.559Z,88.8
2018-02-06T14:46:50.979Z,89.4
2018-02-06T14:47:53.404Z,89.5
2018-02-06T14:48:55.832Z,89.5
2018-02-06T14:49:58.268Z,89.7
2018-02-06T14:51:00.693Z,89.6
2018-02-06T14:52:03.105Z,89.6
2018-02-06T14:53:05.834Z,89.6
2018-02-06T14:54:08.244Z,89.7
2018-02-06T14:55:10.678Z,89.8
2018-02-06T14:56:13.103Z,90
2018-02-06T14:57:15.526Z,90
2018-02-06T14:58:17.953Z,90.2
2018-02-06T14:59:20.383Z,90.1
2018-02-06T15:00:22.799Z,90.3
2018-02-06T15:01:25.225Z,90.3
2018-02-06T15:02:27.644Z,90.4
2018-02-06T15:03:30.062Z,90.4
2018-02-06T15:04:32.493Z,90.4
2018-02-06T15:05:34.929Z,90.3
2018-02-06T15:06:37.348Z,90.1
2018-02-06T15:07:39.782Z,89.8
2018-02-06T15:08:42.194Z,90
2018-02-06T15:09:44.620Z,90.2
2018-02-06T15:10:47.332Z,90.3
2018-02-06T15:11:49.752Z,90.3
2018-02-06T15:12:52.195Z,90.4
2018-02-06T15:13:54.622Z,90.3
2018-02-06T15:14:57.045Z,90.3
2018-02-06T15:15:59.477Z,90.2
2018-02-06T15:17:01.914Z,90.2
2018-02-06T15:18:04.327Z,89.9
2018-02-06T15:19:07.039Z,89.5
2018-02-06T15:20:09.463Z,89
2018-02-06T15:21:11.882Z,88.7
2018-02-06T15:22:14.306Z,88.6
2018-02-06T15:23:16.725Z,88.4
2018-02-06T15:24:19.150Z,88.2
2018-02-06T15:25:21.587Z,88.5
2018-02-06T15:26:24.003Z,88.8
2018-02-06T15:27:26.416Z,89
2018-02-06T15:28:28.838Z,89.2
2018-02-06T15:29:31.259Z,89.5
2018-02-06T15:30:33.683Z,89.2
2018-02-06T15:31:36.107Z,88.9
2018-02-06T15:32:38.523Z,88.9
2018-02-06T15:33:40.944Z,89.1
2018-02-06T15:34:43.378Z,89.1
2018-02-06T15:35:45.795Z,89.4
2018-02-06T15:36:48.221Z,89.5
2018-02-06T15:37:50.644Z,89.5
2018-02-06T15:38:53.066Z,89.7
2018-02-06T15:39:55.479Z,89.9
2018-02-06T15:40:57.901Z,89.9
2018-02-06T15:42:00.608Z,89.6
2018-02-06T15:43:03.039Z,89.6
2018-02-06T15:44:05.454Z,89.5
2018-02-06T15:45:07.884Z,89.4
2018-02-06T15:46:10.587Z,89.4
2018-02-06T15:47:13.014Z,89.5
2018-02-06T15:48:15.725Z,89.6
2018-02-06T15:49:18.138Z,89.7
2018-02-06T15:50:20.547Z,89.6
2018-02-06T15:51:22.982Z,89.6
2018-02-06T15:52:25.399Z,89.5
2018-02-06T15:53:27.829Z,89.3